Issaquah, WA

12:14 PM PDT on September 22, 2014 (GMT -0700)
Front Street | Change Station
CLOSE
Current Station
Personal Weather Station
Location: Issaquah, WA
Elevation: 92 ft
Nearby Weather Stations

Elev 92 ft 47.53 °N, 122.04 °W | Updated 4 minutes ago

Overcast
Overcast
64.1 °F
Feels Like 64.1 °F
N
2.0
Wind Variable Wind from ESE
Gusts 2.0 mph

Today
High -- | Low -- °F
--% Chance of Precip.
Yesterday
High -- | Low -- °F
Precip. -- in
6:55 AM 7:05 PM
Waning Crescent, 2% visible
Pressure 30.01 in
Visibility 10.0 miles
Clouds Few 2800 ft
Overcast 3600 ft
Dew Point 58 °F
Humidity 80%
Rainfall 0.00 in
Snow Depth 0 in , 0 in , 0 in
UV 1.2 out of 12
Pollen 1.40 out of 12
Air Quality Not available.
Flu Activity Not available.
METAR KRNT 221853Z 15005KT 10SM FEW028 OVC036 19/14 A2999 RMK AO2 SLP160 T01890144

More Conditions Fewer Conditions

Pressure 30.01 in
Visibility 10.0 miles
Clouds Few 2800 ft
Overcast 3600 ft
Dew Point 58 °F
Humidity 80%
Rainfall 0.00 in
Snow Depth 0 in , 0 in , 0 in
UV 1.2 out of 12
Pollen 1.40 out of 12
Air Quality Not available.
Flu Activity Not available.
METAR KRNT 221853Z 15005KT 10SM FEW028 OVC036 19/14 A2999 RMK AO2 SLP160 T01890144

More Conditions Fewer Conditions

10-Day Weather Forecast

Almanac

Astronomy

Sep. 22, 2014 Rise Set
Actual Time 6:55 AM PDT 7:05 PM PDT
Civil Twilight 6:24 AM PDT 7:36 PM PDT
Nautical Twilight 5:48 AM PDT 8:12 PM PDT
Astronomical Twilight 5:10 AM PDT 8:49 PM PDT
Moon 5:24 AM PDT 6:18 PM PDT
Length of Visible Light 13h 11m
Length of Day
12h 10m
Tomorrow will be 3m 24s shorter.
Waning Crescent, 2% of the Moon is Illuminated
Today
Waning Crescent
Sep 24
New
Oct 1
First Quarter
Oct 8
Full
Oct 15
Last Quarter

Today's Extremes

State Highs State Lows

Community

WunderPhotos

Upload Photos

1,755,514 photos uploaded!

WunderBlogs® & News

Nearby

Snow Depth

Station Depth Elevation
Spencer Meadow 0 in 3400 ft
Park Creek Ridge 0 in 4600 ft
Sourdough Gulch 0 in 4000 ft
Sentinel Butte 0 in 4920 ft
White Pass E.S. 0 in 4500 ft

Earthquake Activity

City Distance Mag. Time & Date
No recent earthquake activity has been reported nearby.
Minimum magnitude displayed is 2.5.

Coastal Water Temperatures

Place Temperature
Port Townsend, WA 53.1 °F
Seattle, WA 55.9 °F
Friday Harbor, WA 52.0 °F
Tacoma, WA 55.9 °F

Nearby Weather Stations